createdAt,value
2019-01-29T00:00:57.759Z,62.48
2019-01-29T00:03:25.881Z,62.50
2019-01-29T00:05:53.858Z,62.48
2019-01-29T00:08:22.030Z,62.50
2019-01-29T00:10:50.426Z,62.54
2019-01-29T00:13:18.488Z,62.56
2019-01-29T00:15:46.507Z,62.63
2019-01-29T00:18:14.663Z,62.65
2019-01-29T00:20:43.272Z,62.64
2019-01-29T00:23:11.310Z,62.65
2019-01-29T00:25:39.336Z,62.66
2019-01-29T00:28:07.413Z,62.64
2019-01-29T00:30:35.405Z,62.65
2019-01-29T00:33:03.583Z,62.65
2019-01-29T00:35:32.580Z,62.65
2019-01-29T00:38:01.721Z,62.67
2019-01-29T00:40:29.888Z,62.69
2019-01-29T00:42:57.897Z,62.72
2019-01-29T00:45:26.219Z,62.72
2019-01-29T00:47:54.222Z,62.73
2019-01-29T00:50:22.206Z,62.72
2019-01-29T00:52:51.054Z,62.74
2019-01-29T00:55:19.096Z,62.75
2019-01-29T00:57:47.620Z,62.79
2019-01-29T01:00:21.124Z,62.79
2019-01-29T01:02:49.904Z,62.77
2019-01-29T01:05:18.294Z,62.78
2019-01-29T01:07:46.562Z,62.79
2019-01-29T01:10:17.519Z,62.81
2019-01-29T01:12:46.583Z,62.78
2019-01-29T01:15:14.582Z,62.77
2019-01-29T01:17:43.344Z,62.78
2019-01-29T01:20:14.666Z,62.76
2019-01-29T01:22:50.345Z,62.77
2019-01-29T01:25:14.476Z,62.74
2019-01-29T01:27:42.538Z,62.76
2019-01-29T01:30:14.393Z,62.75
2019-01-29T01:32:42.471Z,62.74
2019-01-29T01:35:10.655Z,62.72
2019-01-29T01:37:38.959Z,62.76
2019-01-29T01:40:12.758Z,62.75
2019-01-29T01:42:40.749Z,62.74
2019-01-29T01:45:09.637Z,62.76
2019-01-29T01:47:38.671Z,62.78
2019-01-29T01:50:09.551Z,62.76
2019-01-29T01:52:37.604Z,62.78
2019-01-29T01:55:08.681Z,62.77
2019-01-29T01:57:36.570Z,62.81
2019-01-29T02:00:05.940Z,62.87
2019-01-29T02:02:34.018Z,62.91
2019-01-29T02:05:02.043Z,62.90
2019-01-29T02:07:30.071Z,62.90
2019-01-29T02:09:58.141Z,62.90
2019-01-29T02:12:26.143Z,62.92
2019-01-29T02:14:59.872Z,62.89
2019-01-29T02:17:27.895Z,62.86
2019-01-29T02:19:55.925Z,62.82
2019-01-29T02:22:23.946Z,62.79
2019-01-29T02:24:51.983Z,62.79
2019-01-29T02:27:20.002Z,62.80
2019-01-29T02:29:48.041Z,62.85
2019-01-29T02:32:16.117Z,62.85
2019-01-29T02:34:44.139Z,62.88
2019-01-29T02:37:12.156Z,62.89
2019-01-29T02:39:40.177Z,62.91
2019-01-29T02:42:08.335Z,62.94
2019-01-29T02:44:37.173Z,62.96
2019-01-29T02:47:05.321Z,62.98
2019-01-29T02:49:33.329Z,62.98
2019-01-29T02:52:01.376Z,62.97
2019-01-29T02:54:29.736Z,62.98
2019-01-29T02:56:57.782Z,62.97
2019-01-29T02:59:25.778Z,62.96
2019-01-29T03:01:53.953Z,62.98
2019-01-29T03:04:22.005Z,62.95
2019-01-29T03:06:50.060Z,62.93
2019-01-29T03:09:18.100Z,62.90
2019-01-29T03:11:46.149Z,62.88
2019-01-29T03:14:14.287Z,62.87
2019-01-29T03:16:44.432Z,62.84
2019-01-29T03:19:12.478Z,62.84
2019-01-29T03:21:40.542Z,62.84
2019-01-29T03:24:08.986Z,62.86
2019-01-29T03:26:37.055Z,62.88
2019-01-29T03:29:05.166Z,62.88
2019-01-29T03:31:33.173Z,62.86
2019-01-29T03:34:01.263Z,62.86
2019-01-29T03:36:29.291Z,62.90
2019-01-29T03:38:57.446Z,62.88
2019-01-29T03:41:26.596Z,62.89
2019-01-29T03:43:55.508Z,62.92
2019-01-29T03:46:23.536Z,62.94
2019-01-29T03:48:51.574Z,62.95
2019-01-29T03:51:19.608Z,62.92
2019-01-29T03:53:47.619Z,62.91
2019-01-29T03:56:15.684Z,62.93
2019-01-29T03:58:43.687Z,62.92
2019-01-29T04:01:11.759Z,62.94
2019-01-29T04:03:39.774Z,62.97
2019-01-29T04:06:07.870Z,62.98
2019-01-29T04:08:35.883Z,63.00
2019-01-29T04:11:05.189Z,63.01
2019-01-29T04:13:34.181Z,63.03
2019-01-29T04:16:02.220Z,63.04
2019-01-29T04:18:30.233Z,63.01
2019-01-29T04:20:58.248Z,62.98
2019-01-29T04:23:26.402Z,62.94
2019-01-29T04:25:54.428Z,62.92
2019-01-29T04:28:22.474Z,62.92
2019-01-29T04:30:50.501Z,62.92
2019-01-29T04:33:18.802Z,62.91
2019-01-29T04:35:47.117Z,62.94
2019-01-29T04:38:15.118Z,62.96
2019-01-29T04:40:43.184Z,62.94
2019-01-29T04:43:13.011Z,62.96
2019-01-29T04:45:41.137Z,62.97
2019-01-29T04:48:09.135Z,62.98
2019-01-29T04:50:37.166Z,62.95
2019-01-29T04:53:05.196Z,62.93
2019-01-29T04:55:33.219Z,62.89
2019-01-29T04:58:01.246Z,62.87
2019-01-29T05:00:29.464Z,62.88
2019-01-29T05:02:57.536Z,62.89
2019-01-29T05:05:28.461Z,62.92
2019-01-29T05:07:56.581Z,62.93
2019-01-29T05:10:24.605Z,62.94
2019-01-29T05:12:52.672Z,62.93
2019-01-29T05:15:20.806Z,62.92
2019-01-29T05:17:48.815Z,62.93
2019-01-29T05:20:19.411Z,62.93
2019-01-29T05:22:47.616Z,62.97
2019-01-29T05:25:15.968Z,62.97
2019-01-29T05:27:44.054Z,62.99
2019-01-29T05:30:20.630Z,62.99
2019-01-29T05:32:48.871Z,63.00
2019-01-29T05:35:17.121Z,62.98
2019-01-29T05:37:46.187Z,62.99
2019-01-29T05:40:16.203Z,62.99
2019-01-29T05:42:44.441Z,63.00
2019-01-29T05:45:14.821Z,63.01
2019-01-29T05:47:42.907Z,63.01
2019-01-29T05:50:11.475Z,63.04
2019-01-29T05:52:39.591Z,63.06
2019-01-29T05:55:08.458Z,63.05
2019-01-29T05:57:36.574Z,63.06
2019-01-29T06:00:09.858Z,63.05
2019-01-29T06:02:37.946Z,63.02
2019-01-29T06:05:06.646Z,63.01
2019-01-29T06:07:36.453Z,63.02
2019-01-29T06:10:05.797Z,63.02
2019-01-29T06:12:34.229Z,63.03
2019-01-29T06:15:02.896Z,63.05
2019-01-29T06:17:30.991Z,63.03
2019-01-29T06:19:59.011Z,63.02
2019-01-29T06:22:27.105Z,63.04
2019-01-29T06:24:55.084Z,63.06
2019-01-29T06:27:23.220Z,63.06
2019-01-29T06:29:51.211Z,63.05
2019-01-29T06:32:19.299Z,63.05
2019-01-29T06:34:47.359Z,63.01
2019-01-29T06:37:15.726Z,62.99
2019-01-29T06:39:43.769Z,63.02
2019-01-29T06:42:11.851Z,63.02
2019-01-29T06:44:40.014Z,63.05
2019-01-29T06:47:08.109Z,63.08
2019-01-29T06:49:36.251Z,63.10
2019-01-29T06:52:04.728Z,63.08
2019-01-29T06:54:34.251Z,63.10
2019-01-29T06:57:02.642Z,63.09
2019-01-29T06:59:31.368Z,63.08
2019-01-29T07:01:59.441Z,63.10
2019-01-29T07:04:27.820Z,63.11
2019-01-29T07:06:56.217Z,63.10
2019-01-29T07:09:24.224Z,63.11
2019-01-29T07:12:00.910Z,63.12
2019-01-29T07:14:29.195Z,63.14
2019-01-29T07:17:16.903Z,63.12
2019-01-29T07:19:47.971Z,63.12
2019-01-29T07:22:15.994Z,63.11
2019-01-29T07:24:44.045Z,63.13
2019-01-29T07:27:12.103Z,63.14
2019-01-29T07:29:40.138Z,63.14
2019-01-29T07:32:08.206Z,63.15
2019-01-29T07:34:36.207Z,63.14
2019-01-29T07:37:04.369Z,63.11
2019-01-29T07:39:32.367Z,63.10
2019-01-29T07:42:00.415Z,63.08
2019-01-29T07:44:28.465Z,63.06
2019-01-29T07:46:56.490Z,62.99
2019-01-29T07:49:24.542Z,62.95
2019-01-29T07:51:52.570Z,62.94
2019-01-29T07:54:20.602Z,62.96
2019-01-29T07:56:48.715Z,62.99
2019-01-29T07:59:16.766Z,63.01
2019-01-29T08:01:44.840Z,63.06
2019-01-29T08:04:12.886Z,63.11
2019-01-29T08:06:40.912Z,63.11
2019-01-29T08:09:09.953Z,63.12
2019-01-29T08:11:37.957Z,63.14
2019-01-29T08:14:06.030Z,63.18
2019-01-29T08:16:34.016Z,63.21
2019-01-29T08:19:02.096Z,63.23
2019-01-29T08:21:31.168Z,63.26
2019-01-29T08:23:59.190Z,63.27
2019-01-29T08:26:27.291Z,63.26
2019-01-29T08:28:55.319Z,63.29
2019-01-29T08:31:23.372Z,63.28
2019-01-29T08:33:51.697Z,63.30
2019-01-29T08:36:19.726Z,63.31
2019-01-29T08:38:47.802Z,63.31
2019-01-29T08:41:15.841Z,63.30
2019-01-29T08:43:43.941Z,63.28
2019-01-29T08:46:11.965Z,63.28
2019-01-29T08:48:40.014Z,63.29
2019-01-29T08:51:08.239Z,63.23
2019-01-29T08:53:36.384Z,63.16
2019-01-29T08:56:05.299Z,63.07
2019-01-29T08:58:33.383Z,62.94
2019-01-29T09:01:01.719Z,62.89
2019-01-29T09:03:31.269Z,62.80
2019-01-29T09:05:59.399Z,62.71
2019-01-29T09:08:27.434Z,62.61
2019-01-29T09:10:55.532Z,62.50
2019-01-29T09:13:23.565Z,62.39
2019-01-29T09:15:51.563Z,62.32
2019-01-29T09:18:19.586Z,62.24
2019-01-29T09:20:47.805Z,62.19
2019-01-29T09:23:16.126Z,62.16
2019-01-29T09:25:44.144Z,62.12
2019-01-29T09:28:12.218Z,62.11
2019-01-29T09:30:40.291Z,62.09
2019-01-29T09:33:08.487Z,62.05
2019-01-29T09:35:42.444Z,62.06
2019-01-29T09:38:10.606Z,62.03
2019-01-29T09:40:38.610Z,62.06
2019-01-29T09:43:06.708Z,62.12
2019-01-29T09:45:34.693Z,62.10
2019-01-29T09:48:02.964Z,61.98
2019-01-29T09:50:31.027Z,61.81
2019-01-29T09:52:59.113Z,61.45
2019-01-29T09:55:29.475Z,61.20
2019-01-29T09:57:57.679Z,61.01
2019-01-29T10:00:31.785Z,60.75
2019-01-29T10:02:59.903Z,60.59
2019-01-29T10:05:31.459Z,60.35
2019-01-29T10:07:59.640Z,60.12
2019-01-29T10:10:27.669Z,60.04
2019-01-29T10:12:55.782Z,59.97
2019-01-29T10:15:29.356Z,59.85
2019-01-29T10:17:57.426Z,59.74
2019-01-29T10:20:25.871Z,59.68
2019-01-29T10:22:53.894Z,59.69
2019-01-29T10:25:21.987Z,59.75
2019-01-29T10:27:50.026Z,59.66
2019-01-29T10:30:18.503Z,59.48
2019-01-29T10:32:46.507Z,59.36
2019-01-29T10:35:16.753Z,59.25
2019-01-29T10:37:44.795Z,59.05
2019-01-29T10:40:17.027Z,58.81
2019-01-29T10:42:45.136Z,58.63
2019-01-29T10:45:15.757Z,58.60
2019-01-29T10:47:43.851Z,58.39
2019-01-29T10:50:24.317Z,58.03
2019-01-29T10:52:53.117Z,57.60
2019-01-29T10:55:21.587Z,57.61
2019-01-29T10:57:50.559Z,57.48
2019-01-29T11:00:25.308Z,57.25
2019-01-29T11:02:53.438Z,56.84
2019-01-29T11:05:21.883Z,56.64
2019-01-29T11:07:50.059Z,56.57
2019-01-29T11:10:18.355Z,56.62
2019-01-29T11:12:46.409Z,56.61
2019-01-29T11:15:20.783Z,56.63
2019-01-29T11:17:49.048Z,56.62
2019-01-29T11:20:18.069Z,56.47
2019-01-29T11:22:46.266Z,56.31
2019-01-29T11:25:18.336Z,56.18
2019-01-29T11:27:47.725Z,56.30
2019-01-29T11:30:18.706Z,56.42
2019-01-29T11:32:47.040Z,56.56
2019-01-29T11:35:15.248Z,56.79
2019-01-29T11:37:43.289Z,56.76
2019-01-29T11:40:16.887Z,56.59
2019-01-29T11:42:44.940Z,56.56
2019-01-29T11:45:36.669Z,56.59
2019-01-29T11:48:04.834Z,56.64
2019-01-29T11:50:33.122Z,56.70
2019-01-29T11:53:01.522Z,56.78
2019-01-29T11:55:29.757Z,56.80
2019-01-29T11:57:57.859Z,56.73
2019-01-29T12:00:45.432Z,56.46
2019-01-29T12:03:13.486Z,56.19
2019-01-29T12:05:41.578Z,55.85
2019-01-29T12:08:09.792Z,55.54
2019-01-29T12:10:37.850Z,55.27
2019-01-29T12:13:05.941Z,54.99
2019-01-29T12:15:34.787Z,54.80
2019-01-29T12:18:03.186Z,54.68
2019-01-29T12:20:31.610Z,54.56
2019-01-29T12:22:59.774Z,54.52
2019-01-29T12:25:27.846Z,54.49
2019-01-29T12:27:55.926Z,54.49
2019-01-29T12:30:24.310Z,54.50
2019-01-29T12:32:53.678Z,54.55
2019-01-29T12:35:23.740Z,54.57
2019-01-29T12:37:51.872Z,54.70
2019-01-29T12:40:20.337Z,54.89
2019-01-29T12:42:48.676Z,55.08
2019-01-29T12:45:18.339Z,55.28
2019-01-29T12:47:46.579Z,55.40
2019-01-29T12:50:18.896Z,55.54
2019-01-29T12:53:06.916Z,55.65
2019-01-29T12:55:35.533Z,55.78
2019-01-29T12:58:05.689Z,55.79
2019-01-29T13:00:40.136Z,55.74
2019-01-29T13:03:08.177Z,55.78
2019-01-29T13:05:36.259Z,55.77
2019-01-29T13:08:04.641Z,55.71
2019-01-29T13:10:32.752Z,55.59
2019-01-29T13:13:00.822Z,55.43
2019-01-29T13:15:28.927Z,55.32
2019-01-29T13:17:57.190Z,55.25
2019-01-29T13:20:25.324Z,55.15
2019-01-29T13:22:53.329Z,55.10
2019-01-29T13:25:21.520Z,55.03
2019-01-29T13:27:51.271Z,55.12
2019-01-29T13:30:24.778Z,55.21
2019-01-29T13:32:52.783Z,55.33
2019-01-29T13:35:22.900Z,55.39
2019-01-29T13:37:50.902Z,55.39
2019-01-29T13:40:18.938Z,55.42
2019-01-29T13:42:46.976Z,55.44
2019-01-29T13:45:15.292Z,55.42
2019-01-29T13:47:43.264Z,55.43
2019-01-29T13:50:15.762Z,55.43
2019-01-29T13:52:43.814Z,55.44
2019-01-29T13:55:13.018Z,55.45
2019-01-29T13:57:41.008Z,55.46
2019-01-29T14:00:18.198Z,55.55
2019-01-29T14:02:46.235Z,55.64
2019-01-29T14:05:14.280Z,55.71
2019-01-29T14:07:42.316Z,55.72
2019-01-29T14:10:11.445Z,55.70
2019-01-29T14:12:39.500Z,55.62
2019-01-29T14:15:11.613Z,55.52
2019-01-29T14:17:39.676Z,55.38
2019-01-29T14:20:13.063Z,55.16
2019-01-29T14:22:41.120Z,54.84
2019-01-29T14:25:09.836Z,54.59
2019-01-29T14:27:37.951Z,54.42
2019-01-29T14:30:10.843Z,54.31
2019-01-29T14:32:38.920Z,54.36
2019-01-29T14:35:06.981Z,54.35
2019-01-29T14:38:43.898Z,54.35
2019-01-29T14:41:12.470Z,54.36
2019-01-29T14:43:50.638Z,54.58
2019-01-29T14:46:19.531Z,54.70
2019-01-29T14:48:47.652Z,54.69
2019-01-29T14:51:15.913Z,54.64
2019-01-29T14:53:43.971Z,54.57
2019-01-29T14:56:12.059Z,54.54
2019-01-29T14:58:40.123Z,54.48
2019-01-29T15:01:08.677Z,54.39
2019-01-29T15:03:36.902Z,54.42
2019-01-29T15:06:05.542Z,54.46
2019-01-29T15:08:33.664Z,54.43
2019-01-29T15:11:02.161Z,54.33
2019-01-29T15:13:30.211Z,54.21
2019-01-29T15:16:08.911Z,54.12
2019-01-29T15:18:40.374Z,54.04
2019-01-29T15:21:09.423Z,54.02
2019-01-29T15:23:37.820Z,53.98
2019-01-29T15:26:05.934Z,53.84
2019-01-29T15:28:33.989Z,53.70
2019-01-29T15:31:02.137Z,53.59
2019-01-29T15:33:30.156Z,53.47
2019-01-29T15:35:58.275Z,53.42
2019-01-29T15:38:26.378Z,53.36
2019-01-29T15:40:54.431Z,53.36
2019-01-29T15:43:22.547Z,53.35
2019-01-29T15:45:50.615Z,53.39
2019-01-29T15:48:18.712Z,53.43
2019-01-29T15:50:47.041Z,53.49
2019-01-29T15:53:15.527Z,53.53
2019-01-29T15:55:43.683Z,53.56
2019-01-29T15:58:12.147Z,53.58
2019-01-29T16:00:41.543Z,53.60
2019-01-29T16:03:09.760Z,53.59
2019-01-29T16:05:38.550Z,53.60
2019-01-29T16:08:07.564Z,53.64
2019-01-29T16:10:39.861Z,53.65
2019-01-29T16:13:07.446Z,53.73
2019-01-29T16:15:36.310Z,53.82
2019-01-29T16:18:06.136Z,53.84
2019-01-29T16:20:34.885Z,53.88
2019-01-29T16:23:04.114Z,53.91
2019-01-29T16:25:32.806Z,53.93
2019-01-29T16:28:01.124Z,53.96
2019-01-29T16:30:29.434Z,53.98
2019-01-29T16:32:57.624Z,54.07
2019-01-29T16:35:29.642Z,54.12
2019-01-29T16:37:58.427Z,54.18
2019-01-29T16:40:28.669Z,54.27
2019-01-29T16:42:56.944Z,54.39
2019-01-29T16:45:28.656Z,54.47
2019-01-29T16:47:58.022Z,54.55
2019-01-29T16:50:26.570Z,54.60
2019-01-29T16:52:56.479Z,54.71
2019-01-29T16:55:25.301Z,54.79
2019-01-29T16:57:53.366Z,54.87
2019-01-29T17:00:28.179Z,54.94
2019-01-29T17:02:57.456Z,55.04
2019-01-29T17:05:27.239Z,55.09
2019-01-29T17:07:57.803Z,55.16
2019-01-29T17:10:26.441Z,55.24
2019-01-29T17:12:55.281Z,55.32
2019-01-29T17:15:27.718Z,55.38
2019-01-29T17:17:58.315Z,55.48
2019-01-29T17:20:29.881Z,55.55
2019-01-29T17:22:58.102Z,55.62
2019-01-29T17:25:26.463Z,55.70
2019-01-29T17:27:54.856Z,55.83
2019-01-29T17:30:38.310Z,55.94
2019-01-29T17:33:08.816Z,55.98
2019-01-29T17:35:39.821Z,56.01
2019-01-29T17:38:08.734Z,56.08
2019-01-29T17:40:38.219Z,56.12
2019-01-29T17:43:06.993Z,56.18
2019-01-29T17:45:43.937Z,56.21
2019-01-29T17:48:13.657Z,56.24
2019-01-29T19:54:51.603Z,58.11
2019-01-29T19:57:20.187Z,58.18
2019-01-29T20:29:26.883Z,58.39
2019-01-29T20:31:55.779Z,58.42
2019-01-29T20:34:24.103Z,58.50
2019-01-29T20:36:53.487Z,58.55
2019-01-29T20:39:21.553Z,58.58
2019-01-29T20:41:51.742Z,58.56
2019-01-29T20:44:19.776Z,58.57
2019-01-29T20:46:47.818Z,58.57
2019-01-29T20:49:15.926Z,58.60
2019-01-29T20:51:44.343Z,58.61
2019-01-29T20:54:12.399Z,58.64
2019-01-29T20:56:40.461Z,58.63
2019-01-29T20:59:08.534Z,58.63
2019-01-29T21:01:37.511Z,58.63
2019-01-29T21:04:06.533Z,58.66
2019-01-29T21:06:34.614Z,58.68
2019-01-29T21:09:06.586Z,58.68
2019-01-29T21:11:35.796Z,58.72
2019-01-29T21:14:04.199Z,58.71
2019-01-29T21:16:33.917Z,58.73
2019-01-29T21:19:01.964Z,58.75
2019-01-29T21:21:30.093Z,58.73
2019-01-29T21:23:58.225Z,58.72
2019-01-29T21:26:26.337Z,58.75
2019-01-29T21:29:02.773Z,58.77
2019-01-29T21:31:25.264Z,58.76
2019-01-29T21:33:53.322Z,58.75
2019-01-29T21:36:21.384Z,58.78
2019-01-29T21:38:49.500Z,58.77
2019-01-29T21:41:17.947Z,58.78
2019-01-29T21:43:47.335Z,58.80
2019-01-29T21:46:15.435Z,58.80
2019-01-29T21:48:43.458Z,58.82
2019-01-29T21:51:11.550Z,58.82
2019-01-29T21:53:39.833Z,58.82
2019-01-29T21:56:07.895Z,58.84
2019-01-29T21:58:37.035Z,58.86
2019-01-29T22:01:05.188Z,58.87
2019-01-29T22:03:33.237Z,58.89
2019-01-29T22:06:01.281Z,58.89
2019-01-29T22:08:29.332Z,58.89
2019-01-29T22:10:57.409Z,58.89
2019-01-29T22:13:25.857Z,58.92
2019-01-29T22:15:53.977Z,58.94
2019-01-29T22:18:22.051Z,58.93
2019-01-29T22:20:50.145Z,58.92
2019-01-29T22:23:18.204Z,58.94
2019-01-29T22:25:46.279Z,58.96
2019-01-29T22:28:14.328Z,58.94
2019-01-29T22:30:42.857Z,58.94
2019-01-29T22:33:10.997Z,58.91
2019-01-29T22:35:41.575Z,58.92
2019-01-29T22:38:09.916Z,58.90
2019-01-29T22:40:38.239Z,58.89
2019-01-29T22:43:06.347Z,58.89
2019-01-29T22:45:34.476Z,58.90
2019-01-29T22:48:04.635Z,58.87
2019-01-29T22:50:35.719Z,58.86
2019-01-29T22:53:05.171Z,58.89
2019-01-29T22:55:33.236Z,58.90
2019-01-29T22:58:01.334Z,58.89
2019-01-29T23:00:54.705Z,58.87
2019-01-29T23:03:41.817Z,58.88
2019-01-29T23:06:41.522Z,58.82
2019-01-29T23:09:10.751Z,58.87
2019-01-29T23:11:41.152Z,58.85
2019-01-29T23:14:09.645Z,58.87
2019-01-29T23:16:37.871Z,58.89
2019-01-29T23:19:05.909Z,58.90
2019-01-29T23:21:34.053Z,58.90
2019-01-29T23:24:02.085Z,58.85
2019-01-29T23:26:30.293Z,58.83
2019-01-29T23:28:59.444Z,58.81
2019-01-29T23:31:27.939Z,58.81
2019-01-29T23:33:55.998Z,58.79
2019-01-29T23:36:24.070Z,58.81
2019-01-29T23:38:52.230Z,58.82
2019-01-29T23:41:20.314Z,58.84
2019-01-29T23:43:48.356Z,58.85
2019-01-29T23:46:16.476Z,58.87
2019-01-29T23:48:44.930Z,58.86
2019-01-29T23:51:12.967Z,58.89
2019-01-29T23:53:41.016Z,58.87
2019-01-29T23:56:09.080Z,58.87
2019-01-29T23:58:37.166Z,58.87
